KAVP/AVP METAR and TAF weather

Enter ICAO airport designator
Station Type Date Time Source
KAVP METAR 2022/10/01 06:54 UTC NOAA

KAVP 010654Z 05008KT 10SM -RA FEW055 SCT090 OVC110 12/08 A3011 RMK AO2 RAB29 SLP195 P0000 T01170078


Station Type Date Time Source
KAVP Decoded METAR 2022/10/01 06:54 UTC NOAA

WILKES-BARRE/SCRANTON INTERNATIONAL , PA, United States (KAVP) 41-20N 75-44W 291M
Oct 01, 2022 - 02:54 AM EDT / 2022.10.01 0654 UTC
Wind: from the NE (050 degrees) at 9 MPH (8 KT):0
Visibility: 10 mile(s):0
Sky conditions: overcast
Weather: light rain
Precipitation last hour: A trace
Temperature: 53.1 F (11.7 C)
Dew Point: 46.0 F (7.8 C)
Relative Humidity: 76%
Pressure (altimeter): 30.11 in. Hg (1019 hPa)
ob: KAVP 010654Z 05008KT 10SM -RA FEW055 SCT090 OVC110 12/08 A3011 RMK AO2 RAB29 SLP195 P0000 T01170078
cycle: 7

Station Type Date Time Source
KAVP TAF 2022/10/01 06:36 UTC NOAA

TAF KAVP 010535Z 0106/0206 07005KT P6SM SCT070 BKN120 OVC150
TEMPO 0106/0109 -SHRA BKN070 OVC090
FM010900 08007KT P6SM VCSH BKN080 OVC120
TEMPO 0109/0113 -RA OVC040
FM011500 05007G12KT P6SM -SHRA BKN035 OVC060
FM012200 04008KT P6SM BKN035 OVC140

Example: see airport list